Hovedside
METAR-TAF:

METAR-TAF

Lufthavner :

Dzaoudzi, Mayotte

breddegrad: 12-48S, lengdegrad: 045-17E, høyde over havet: 8 m

Gjeldene værobservasjon

Denne rapporten ble laget for 21 minutter siden, klokken 09:30 UTC
Vind 8 kt fra Sør
Temperatur 28°C
Luftfuktighet 66%
Trykk 1017 hPa
Sikt 10 km eller mer
Brutte skyer i en høyde av 2300 ft

METAR: FMCZ 090930Z AUTO 17008KT 9999 BKN023 28/21 Q1017 NOSIG

Tid: 12:51 (09:51 UTC)

Varsel

Denne rapporten ble laget for 4 timer og 51 minutter siden, klokken 05:00 UTC
Varsel gyldig fra 09. klokken 06 UTC til 10. klokken 06 UTC
Vind 12 kt fra Sør
Sikt 10 km eller mer
Få skyer i en høyde av 2200 ft
Brutte skyer i en høyde av 8200 ft

TAF: FMCZ 090500Z 0906/1006 18012KT 9999 FEW022 BKN082

Værobservasjoner og værvarsel for over 4000 flyplasser (METAR- og TAF-rapporter).

Tilgjengelige stasjoner er representert av de røde og gule prikkene på kartet.

Hold musepekeren over prikken for å se navnet på stasjonen.

Klikk så for å se værobservasjoner og -varsler.

For å forandre kartet kan du klikke på den grønne knappen med svart kryss for å zoome inn, på den grønne knappen med strek for å zoome ut, eller på de grønne pilene for å se tilstøtende kart.


METAR-TAF: